Time;durP1;ratioP1;P1;durP2;ratioP2;P2;SDS_P1;SDS_P2;PMS_P1;PMS_P2;Temp;Humidity;BMP_temperature;BMP_pressure;BME280_temperature;BME280_humidity;BME280_pressure;Samples;Min_cycle;Max_cycle;Signal;HPM_P1;HPM_P2
2022/10/17 00:00:12;;;;;;;;;;;;;;;12.76;83.91;101353.48;85980;1297;82810;-58
2022/10/17 00:02:39;;;;;;;;;;;;;;;12.71;83.88;101353.55;85965;1291;97864;-57
2022/10/17 00:04:46;;;;;;;;;;;;;;;12.64;84.00;101359.41;86027;1297;88594;-59
2022/10/17 00:06:53;;;;;;;;;;;;;;;12.61;83.91;101358.52;85995;1291;94701;-59
2022/10/17 00:09:00;;;;;;;;;;;;;;;12.61;84.05;101363.43;85977;1294;82170;-58
2022/10/17 00:11:12;;;;;;;;;;;;;;;12.60;84.03;101365.71;85992;1291;82395;-58
2022/10/17 00:13:19;;;;;;;;;;;;;;;12.55;83.96;101361.95;86056;1297;99508;-58
2022/10/17 00:15:26;;;;;;;;;;;;;;;12.51;84.00;101367.70;86013;1297;89303;-56
2022/10/17 00:17:34;;;;;;;;;;;;;;;12.48;84.10;101363.35;86017;1297;94657;-52
2022/10/17 00:19:41;;;;;;;;;;;;;;;12.47;84.19;101360.14;85999;1292;82588;-56
2022/10/17 00:21:50;;;;;;;;;;;;;;;12.52;84.22;101358.00;85986;1297;82685;-55
2022/10/17 00:23:57;;;;;;;;;;;;;;;12.53;84.25;101357.11;86027;1291;96464;-59
2022/10/17 00:26:06;;;;;;;;;;;;;;;12.52;84.31;101359.02;85965;1297;86838;-58
2022/10/17 00:28:15;;;;;;;;;;;;;;;12.51;84.30;101353.95;85962;1291;94997;-59
2022/10/17 00:30:24;;;;;;;;;;;;;;;12.50;84.31;101355.00;86008;1298;82450;-56
2022/10/17 00:32:32;;;;;;;;;;;;;;;12.45;84.34;101362.54;85978;1297;82909;-56
2022/10/17 00:34:41;;;;;;;;;;;;;;;12.44;84.37;101363.70;85962;1297;98908;-55
2022/10/17 00:36:48;;;;;;;;;;;;;;;12.42;84.38;101365.88;85985;1299;89313;-54
2022/10/17 00:38:56;;;;;;;;;;;;;;;12.41;84.50;101371.77;85935;1294;94764;-58
2022/10/17 00:41:04;;;;;;;;;;;;;;;12.47;84.64;101383.48;85995;1292;82493;-59
2022/10/17 00:43:17;;;;;;;;;;;;;;;12.51;84.59;101387.86;85996;1294;81567;-58
2022/10/17 00:45:26;;;;;;;;;;;;;;;12.54;84.71;101389.13;85999;1293;98127;-57
2022/10/17 00:47:34;;;;;;;;;;;;;;;12.58;84.79;101388.70;85992;1299;86525;-58
2022/10/17 00:49:41;;;;;;;;;;;;;;;12.60;84.88;101383.56;86034;1297;95045;-57
2022/10/17 00:51:50;;;;;;;;;;;;;;;12.61;84.85;101381.63;86019;1291;80675;-58
2022/10/17 00:53:58;;;;;;;;;;;;;;;12.64;84.83;101380.17;86066;1291;82587;-54
2022/10/17 00:56:07;;;;;;;;;;;;;;;12.64;84.92;101380.25;86004;1294;100114;-58
2022/10/17 00:58:14;;;;;;;;;;;;;;;12.65;85.06;101375.88;86010;1295;87478;-57
2022/10/17 01:00:26;;;;;;;;;;;;;;;12.68;85.08;101377.39;85979;1297;94757;-55
2022/10/17 01:02:34;;;;;;;;;;;;;;;12.71;85.12;101377.58;85922;1300;79862;-54
2022/10/17 01:04:44;;;;;;;;;;;;;;;12.75;85.05;101377.20;85982;1297;81852;-57
2022/10/17 01:06:51;;;;;;;;;;;;;;;12.77;85.11;101374.30;86015;1299;98807;-58
2022/10/17 01:08:58;;;;;;;;;;;;;;;12.75;85.07;101370.52;85960;1297;87742;-57
2022/10/17 01:11:12;;;;;;;;;;;;;;;12.72;85.03;101368.45;85962;1285;94930;-55
2022/10/17 01:13:23;;;;;;;;;;;;;;;12.72;85.14;101371.84;85987;1299;79764;-56
2022/10/17 01:15:42;;;;;;;;;;;;;;;12.73;85.13;101376.56;86004;1294;81836;-58
2022/10/17 01:17:58;;;;;;;;;;;;;;;12.74;85.11;101376.84;85979;1292;99453;-57
2022/10/17 01:20:48;;;;;;;;;;;;;;;12.78;85.13;101378.02;85993;1294;88743;-55
2022/10/17 01:23:01;;;;;;;;;;;;;;;12.76;85.24;101373.13;85810;1285;93602;-56
2022/10/17 01:25:29;;;;;;;;;;;;;;;12.74;85.19;101366.02;86000;1299;80747;-55
2022/10/17 01:27:53;;;;;;;;;;;;;;;12.71;85.21;101366.77;86011;1291;82701;-54
2022/10/17 01:30:23;;;;;;;;;;;;;;;12.68;85.22;101365.88;85994;1292;98526;-58
2022/10/17 01:32:39;;;;;;;;;;;;;;;12.66;85.18;101371.33;85830;1299;89347;-57
2022/10/17 01:34:52;;;;;;;;;;;;;;;12.65;85.20;101366.89;86014;1299;93952;-54
2022/10/17 01:37:02;;;;;;;;;;;;;;;12.64;85.29;101363.42;86013;1294;81910;-55
2022/10/17 01:39:20;;;;;;;;;;;;;;;12.66;85.31;101371.09;86081;1294;80826;-57
2022/10/17 01:41:34;;;;;;;;;;;;;;;12.68;85.28;101370.01;86006;1297;98053;-55
2022/10/17 01:43:50;;;;;;;;;;;;;;;12.67;85.23;101365.89;85999;1299;88908;-55
2022/10/17 01:45:59;;;;;;;;;;;;;;;12.64;85.13;101360.26;85979;1292;95339;-57
2022/10/17 01:48:10;;;;;;;;;;;;;;;12.61;85.09;101366.79;86016;1297;80267;-53
2022/10/17 01:50:19;;;;;;;;;;;;;;;12.58;85.29;101370.56;86017;1297;82969;-59
2022/10/17 01:52:29;;;;;;;;;;;;;;;12.57;85.27;101374.17;85995;1297;99635;-58
2022/10/17 01:54:41;;;;;;;;;;;;;;;12.54;85.20;101375.55;85996;1294;87433;-57
2022/10/17 01:56:49;;;;;;;;;;;;;;;12.54;85.26;101373.10;85869;1300;95304;-58
2022/10/17 01:59:00;;;;;;;;;;;;;;;12.50;85.25;101375.18;85969;1297;81926;-55
2022/10/17 02:01:10;;;;;;;;;;;;;;;12.42;85.28;101374.05;85875;1300;81850;-54
2022/10/17 02:03:19;;;;;;;;;;;;;;;12.40;85.33;101373.58;85987;1297;98652;-54
2022/10/17 02:05:28;;;;;;;;;;;;;;;12.38;85.26;101370.99;86018;1288;87624;-59
2022/10/17 02:07:38;;;;;;;;;;;;;;;12.33;85.31;101375.11;85984;1292;94001;-59
2022/10/17 02:09:45;;;;;;;;;;;;;;;12.29;85.31;101374.31;86016;1294;82347;-53
2022/10/17 02:12:05;;;;;;;;;;;;;;;12.27;85.36;101381.27;86011;1297;80861;-52
2022/10/17 02:14:20;;;;;;;;;;;;;;;12.23;85.28;101379.05;85992;1299;99647;-58
2022/10/17 02:16:34;;;;;;;;;;;;;;;12.21;85.39;101379.06;86005;1292;87547;-59
2022/10/17 02:19:12;;;;;;;;;;;;;;;12.15;85.30;101381.04;85972;1298;95225;-58
2022/10/17 02:21:25;;;;;;;;;;;;;;;12.10;85.31;101379.98;85977;1297;82778;-58
2022/10/17 02:23:37;;;;;;;;;;;;;;;12.07;85.36;101380.10;86015;1298;82823;-57
2022/10/17 02:25:51;;;;;;;;;;;;;;;12.03;85.51;101384.04;86055;1297;97405;-55
2022/10/17 02:28:04;;;;;;;;;;;;;;;12.03;85.53;101391.12;86028;1298;86453;-55
2022/10/17 02:30:16;;;;;;;;;;;;;;;12.04;85.49;101392.27;86021;1291;95722;-56
2022/10/17 02:32:29;;;;;;;;;;;;;;;12.02;85.35;101393.42;86017;1297;81322;-57
2022/10/17 02:34:39;;;;;;;;;;;;;;;11.95;85.33;101392.88;86024;1292;80595;-56
2022/10/17 02:36:49;;;;;;;;;;;;;;;11.90;85.43;101395.29;86066;1291;97907;-55
2022/10/17 02:38:57;;;;;;;;;;;;;;;11.88;85.39;101398.58;86034;1293;88417;-58
2022/10/17 02:41:06;;;;;;;;;;;;;;;11.88;85.46;101400.81;85988;1294;94953;-58
2022/10/17 02:43:14;;;;;;;;;;;;;;;11.80;85.56;101410.13;86000;1297;82514;-58
2022/10/17 02:45:23;;;;;;;;;;;;;;;11.80;85.65;101408.52;86014;1293;83045;-55
2022/10/17 02:47:33;;;;;;;;;;;;;;;11.80;85.67;101411.09;85965;1297;99564;-54
2022/10/17 02:49:45;;;;;;;;;;;;;;;11.79;85.73;101411.29;85964;1299;88681;-55
2022/10/17 02:51:58;;;;;;;;;;;;;;;11.75;85.57;101414.48;85972;1293;93476;-54
2022/10/17 02:54:09;;;;;;;;;;;;;;;11.69;85.64;101422.96;85954;1291;82412;-59
2022/10/17 02:56:21;;;;;;;;;;;;;;;11.66;85.60;101436.59;85986;1291;82920;-50
2022/10/17 02:58:32;;;;;;;;;;;;;;;11.64;85.60;101440.11;85988;1297;99024;-58
2022/10/17 03:00:40;;;;;;;;;;;;;;;11.62;85.72;101450.23;86006;1292;88032;-56
2022/10/17 03:02:49;;;;;;;;;;;;;;;11.68;85.69;101456.94;86015;1294;95584;-55
2022/10/17 03:04:56;;;;;;;;;;;;;;;11.69;85.71;101454.86;86011;1294;81722;-55
2022/10/17 03:07:04;;;;;;;;;;;;;;;11.70;85.83;101451.36;86010;1297;81579;-55
2022/10/17 03:09:11;;;;;;;;;;;;;;;11.66;85.73;101451.60;86031;1292;99961;-54
2022/10/17 03:11:18;;;;;;;;;;;;;;;11.61;85.69;101451.79;86029;1291;87062;-54
2022/10/17 03:13:26;;;;;;;;;;;;;;;11.55;85.71;101457.20;86039;1294;93492;-54
2022/10/17 03:15:34;;;;;;;;;;;;;;;11.51;85.78;101457.56;85975;1297;82066;-54
2022/10/17 03:17:41;;;;;;;;;;;;;;;11.50;85.73;101452.33;86006;1294;80112;-56
2022/10/17 03:19:51;;;;;;;;;;;;;;;11.46;85.74;101455.61;85981;1294;99392;-57
2022/10/17 03:21:58;;;;;;;;;;;;;;;11.42;85.74;101458.95;85975;1294;88925;-58
2022/10/17 03:24:05;;;;;;;;;;;;;;;11.38;85.85;101459.99;85982;1294;95929;-55
2022/10/17 03:26:12;;;;;;;;;;;;;;;11.38;85.93;101457.09;86025;1297;80957;-55
2022/10/17 03:28:20;;;;;;;;;;;;;;;11.41;86.01;101451.34;85997;1297;83213;-53
2022/10/17 03:30:27;;;;;;;;;;;;;;;11.45;85.98;101447.46;86002;1294;97218;-59
2022/10/17 03:32:36;;;;;;;;;;;;;;;11.50;86.17;101448.19;85967;1294;89451;-57
2022/10/17 03:34:43;;;;;;;;;;;;;;;11.56;86.34;101447.90;86017;1291;95123;-58
2022/10/17 03:36:50;;;;;;;;;;;;;;;11.67;86.48;101450.46;85948;1291;82657;-57
2022/10/17 03:38:57;;;;;;;;;;;;;;;11.77;86.49;101450.55;85969;1291;82670;-58
2022/10/17 03:41:06;;;;;;;;;;;;;;;11.91;86.85;101447.40;85985;1299;97868;-57
2022/10/17 03:43:13;;;;;;;;;;;;;;;12.03;86.94;101442.50;85972;1293;87160;-54
2022/10/17 03:45:20;;;;;;;;;;;;;;;12.12;86.95;101433.77;85981;1292;95602;-55
2022/10/17 03:47:28;;;;;;;;;;;;;;;12.21;87.19;101431.85;85983;1299;82405;-54
2022/10/17 03:49:35;;;;;;;;;;;;;;;12.29;87.15;101440.66;86017;1294;82645;-52
2022/10/17 03:51:44;;;;;;;;;;;;;;;12.36;87.15;101443.45;85972;1292;98417;-56
2022/10/17 03:53:53;;;;;;;;;;;;;;;12.41;87.20;101445.35;85984;1297;88852;-59
2022/10/17 03:56:11;;;;;;;;;;;;;;;12.48;87.21;101444.44;85989;1293;95052;-54
2022/10/17 03:58:18;;;;;;;;;;;;;;;12.50;87.20;101450.02;85978;1297;82684;-56
2022/10/17 04:00:25;;;;;;;;;;;;;;;12.49;87.12;101451.91;85980;1299;82851;-58
2022/10/17 04:02:33;;;;;;;;;;;;;;;12.49;87.10;101455.52;86007;1297;98069;-58
2022/10/17 04:04:42;;;;;;;;;;;;;;;12.50;87.13;101458.91;86003;1299;88823;-58
2022/10/17 04:06:49;;;;;;;;;;;;;;;12.52;87.30;101461.67;86026;1297;96182;-59
2022/10/17 04:08:56;;;;;;;;;;;;;;;12.55;87.26;101465.33;86042;1284;81669;-56
2022/10/17 04:11:04;;;;;;;;;;;;;;;12.55;87.36;101469.32;85997;1292;81443;-56
2022/10/17 04:13:11;;;;;;;;;;;;;;;12.58;87.29;101469.11;86034;1294;99976;-55
2022/10/17 04:15:18;;;;;;;;;;;;;;;12.60;87.27;101471.41;85979;1291;89561;-55
2022/10/17 04:17:25;;;;;;;;;;;;;;;12.61;87.22;101475.23;85984;1292;93282;-58
2022/10/17 04:19:33;;;;;;;;;;;;;;;12.63;87.30;101472.13;85973;1299;82078;-56
2022/10/17 04:21:40;;;;;;;;;;;;;;;12.68;87.34;101469.98;86003;1292;82362;-50
2022/10/17 04:23:47;;;;;;;;;;;;;;;12.73;87.42;101471.55;86000;1294;100043;-55
2022/10/17 04:25:57;;;;;;;;;;;;;;;12.78;87.54;101468.40;85988;1289;88065;-57
2022/10/17 04:28:07;;;;;;;;;;;;;;;12.81;87.50;101461.64;85853;1294;95142;-58
2022/10/17 04:30:19;;;;;;;;;;;;;;;12.85;87.57;101460.48;86011;1291;82833;-59
2022/10/17 04:32:27;;;;;;;;;;;;;;;12.88;87.56;101459.39;85977;1299;82288;-58
2022/10/17 04:34:34;;;;;;;;;;;;;;;12.92;87.60;101465.77;85965;1294;100028;-52
2022/10/17 04:36:41;;;;;;;;;;;;;;;12.94;87.52;101472.14;85988;1291;86118;-54
2022/10/17 04:38:49;;;;;;;;;;;;;;;12.97;87.48;101468.31;85982;1291;93256;-48
2022/10/17 04:41:02;;;;;;;;;;;;;;;12.97;87.46;101471.36;86021;1294;80646;-55
2022/10/17 04:43:09;;;;;;;;;;;;;;;12.94;87.28;101474.10;86054;1291;81639;-54
2022/10/17 04:45:17;;;;;;;;;;;;;;;12.87;87.20;101477.56;86052;1297;99497;-56
2022/10/17 04:47:24;;;;;;;;;;;;;;;12.83;87.30;101487.84;86026;1291;86468;-49
2022/10/17 04:49:31;;;;;;;;;;;;;;;12.86;87.21;101496.73;85741;1291;465955;-58
2022/10/17 04:51:38;;;;;;;;;;;;;;;12.87;87.22;101498.78;85994;1292;80282;-59
2022/10/17 04:53:47;;;;;;;;;;;;;;;12.87;87.06;101497.84;86052;1294;81030;-59
2022/10/17 04:55:55;;;;;;;;;;;;;;;12.88;87.13;101497.90;86025;1293;100134;-55
2022/10/17 04:58:04;;;;;;;;;;;;;;;12.85;87.12;101500.50;86008;1299;88472;-55
2022/10/17 05:00:13;;;;;;;;;;;;;;;12.85;87.15;101503.55;86034;1295;93954;-55
2022/10/17 05:02:20;;;;;;;;;;;;;;;12.83;87.02;101507.14;85976;1294;81430;-51
2022/10/17 05:04:27;;;;;;;;;;;;;;;12.82;86.89;101508.06;86002;1294;82257;-54
2022/10/17 05:06:34;;;;;;;;;;;;;;;12.76;87.02;101509.81;85998;1286;100101;-55
2022/10/17 05:08:41;;;;;;;;;;;;;;;12.75;86.96;101519.72;86003;1291;89548;-54
2022/10/17 05:10:48;;;;;;;;;;;;;;;12.71;86.92;101523.02;85988;1294;94935;-61
2022/10/17 05:12:55;;;;;;;;;;;;;;;12.69;87.01;101523.15;85979;1293;82323;-57
2022/10/17 05:15:03;;;;;;;;;;;;;;;12.67;87.06;101520.23;85999;1289;80668;-57
2022/10/17 05:17:12;;;;;;;;;;;;;;;12.69;87.04;101512.67;85984;1293;99105;-57
2022/10/17 05:19:22;;;;;;;;;;;;;;;12.68;87.05;101508.23;85968;1292;88248;-53
2022/10/17 05:21:30;;;;;;;;;;;;;;;12.68;87.08;101508.98;85980;1285;94000;-58
2022/10/17 05:23:39;;;;;;;;;;;;;;;12.67;87.05;101511.83;85994;1293;79659;-57
2022/10/17 05:25:53;;;;;;;;;;;;;;;12.68;87.04;101515.11;86020;1294;80335;-58
2022/10/17 05:28:02;;;;;;;;;;;;;;;12.66;87.02;101522.70;85987;1297;98871;-58
2022/10/17 05:30:10;;;;;;;;;;;;;;;12.65;87.06;101525.63;86013;1299;89044;-55
2022/10/17 05:32:20;;;;;;;;;;;;;;;12.66;86.98;101534.34;86033;1292;94442;-54
2022/10/17 05:34:30;;;;;;;;;;;;;;;12.66;87.09;101544.39;86013;1294;80930;-58
2022/10/17 05:36:40;;;;;;;;;;;;;;;12.66;87.11;101558.35;86053;1291;82260;-56
2022/10/17 05:38:51;;;;;;;;;;;;;;;12.73;87.15;101561.65;86012;1291;99321;-58
2022/10/17 05:41:01;;;;;;;;;;;;;;;12.80;87.26;101559.39;86064;1298;88687;-58
2022/10/17 05:43:08;;;;;;;;;;;;;;;12.83;87.37;101561.58;86070;1297;92595;-58
2022/10/17 05:45:18;;;;;;;;;;;;;;;12.87;87.37;101560.42;86033;1291;81426;-54
2022/10/17 05:47:25;;;;;;;;;;;;;;;12.92;87.40;101563.04;86029;1297;81906;-54
2022/10/17 05:49:33;;;;;;;;;;;;;;;12.98;87.51;101562.38;86056;1291;98660;-55
2022/10/17 05:51:41;;;;;;;;;;;;;;;13.01;87.49;101560.73;86046;1297;88116;-53
2022/10/17 05:53:49;;;;;;;;;;;;;;;13.09;87.46;101564.38;86025;1293;94343;-55
2022/10/17 05:56:02;;;;;;;;;;;;;;;13.16;87.42;101564.55;86019;1291;80630;-56
2022/10/17 05:58:11;;;;;;;;;;;;;;;13.21;87.47;101562.11;86030;1298;83006;-56
2022/10/17 06:00:21;;;;;;;;;;;;;;;13.26;87.45;101555.30;85940;1292;98941;-54
2022/10/17 06:02:29;;;;;;;;;;;;;;;13.30;87.25;101555.95;86015;1291;89010;-55
2022/10/17 06:04:44;;;;;;;;;;;;;;;13.37;87.14;101561.07;86001;1291;95194;-58
2022/10/17 06:06:51;;;;;;;;;;;;;;;13.46;87.30;101570.54;86038;1288;80345;-58
2022/10/17 06:08:59;;;;;;;;;;;;;;;13.55;87.27;101573.98;86008;1291;80410;-59
2022/10/17 06:11:10;;;;;;;;;;;;;;;13.65;87.05;101574.05;86030;1298;98563;-58
2022/10/17 06:13:18;;;;;;;;;;;;;;;13.74;87.09;101579.15;86058;1291;89152;-58
2022/10/17 06:15:25;;;;;;;;;;;;;;;13.82;87.12;101580.40;86072;1294;94701;-56
2022/10/17 06:17:32;;;;;;;;;;;;;;;13.92;87.10;101578.84;86081;1294;81546;-55
2022/10/17 06:19:41;;;;;;;;;;;;;;;14.00;87.00;101572.75;86081;1290;83204;-56
2022/10/17 06:21:47;;;;;;;;;;;;;;;14.07;87.09;101570.40;86050;1291;98808;-56
2022/10/17 06:23:54;;;;;;;;;;;;;;;14.19;87.08;101566.88;86040;1294;88570;-57
2022/10/17 06:26:03;;;;;;;;;;;;;;;14.33;86.89;101568.63;86042;1292;94766;-58
2022/10/17 06:28:11;;;;;;;;;;;;;;;14.45;86.94;101572.23;86038;1290;79921;-55
2022/10/17 06:30:19;;;;;;;;;;;;;;;14.57;86.83;101578.64;86048;1291;81124;-59
2022/10/17 06:32:25;;;;;;;;;;;;;;;14.71;86.70;101582.54;86018;1298;97226;-58
2022/10/17 06:34:33;;;;;;;;;;;;;;;14.84;86.65;101587.11;86057;1283;88819;-56
2022/10/17 06:36:39;;;;;;;;;;;;;;;14.96;86.71;101585.26;86029;1291;94843;-58
2022/10/17 06:38:47;;;;;;;;;;;;;;;15.09;86.61;101583.84;86009;1297;81103;-53
2022/10/17 06:40:56;;;;;;;;;;;;;;;15.26;86.41;101580.91;86042;1289;82223;-54
2022/10/17 06:43:03;;;;;;;;;;;;;;;15.42;86.25;101583.88;86030;1290;99912;-56
2022/10/17 06:45:12;;;;;;;;;;;;;;;15.56;86.10;101588.64;86031;1291;88766;-59
2022/10/17 06:47:18;;;;;;;;;;;;;;;15.70;85.94;101595.45;86029;1290;92987;-59
2022/10/17 06:49:25;;;;;;;;;;;;;;;15.79;85.86;101597.43;86016;1293;81039;-55
2022/10/17 06:51:35;;;;;;;;;;;;;;;15.90;85.85;101604.55;85974;1292;81125;-55
2022/10/17 06:53:43;;;;;;;;;;;;;;;16.03;85.61;101606.11;86037;1292;99933;-57
2022/10/17 06:56:00;;;;;;;;;;;;;;;16.11;85.42;101608.00;86040;1290;88178;-53
2022/10/17 06:58:06;;;;;;;;;;;;;;;16.26;85.17;101607.77;86010;1290;95475;-55
2022/10/17 07:00:18;;;;;;;;;;;;;;;16.44;85.03;101609.20;86048;1297;81057;-57
2022/10/17 07:02:25;;;;;;;;;;;;;;;16.57;84.52;101606.65;86041;1291;81746;-54
2022/10/17 07:04:33;;;;;;;;;;;;;;;16.69;84.15;101610.22;86027;1291;99955;-50
2022/10/17 07:06:41;;;;;;;;;;;;;;;16.70;83.74;101606.74;86024;1290;87481;-59
2022/10/17 07:08:49;;;;;;;;;;;;;;;16.80;83.55;101610.38;86026;1290;94231;-58
2022/10/17 07:10:57;;;;;;;;;;;;;;;16.85;83.09;101612.21;86052;1290;79497;-55
2022/10/17 07:13:04;;;;;;;;;;;;;;;16.92;82.74;101611.80;86051;1293;81573;-55
2022/10/17 07:15:12;;;;;;;;;;;;;;;17.00;82.67;101611.34;86088;1291;96408;-59
2022/10/17 07:17:19;;;;;;;;;;;;;;;17.17;82.56;101607.69;86092;1291;87271;-59
2022/10/17 07:19:26;;;;;;;;;;;;;;;17.45;82.12;101606.91;86017;1292;94807;-59
2022/10/17 07:21:33;;;;;;;;;;;;;;;17.74;81.73;101603.22;86023;1293;80820;-59
2022/10/17 07:23:40;;;;;;;;;;;;;;;18.06;81.68;101604.52;86012;1294;83942;-59
2022/10/17 07:25:47;;;;;;;;;;;;;;;18.58;81.53;101601.92;86057;1293;99624;-59
2022/10/17 07:27:54;;;;;;;;;;;;;;;19.22;80.85;101605.37;86046;1290;87395;-59
2022/10/17 07:30:01;;;;;;;;;;;;;;;19.90;80.08;101604.83;86053;1298;95607;-56
2022/10/17 07:32:10;;;;;;;;;;;;;;;20.44;78.97;101609.67;86058;1295;79785;-57
2022/10/17 07:34:16;;;;;;;;;;;;;;;20.80;77.83;101615.92;86031;1291;82643;-57
2022/10/17 07:36:24;;;;;;;;;;;;;;;21.03;77.21;101616.45;85991;1294;98468;-56
2022/10/17 07:38:32;;;;;;;;;;;;;;;21.41;76.59;101614.56;85967;1291;88175;-56
2022/10/17 07:40:39;;;;;;;;;;;;;;;21.61;75.49;101614.09;85954;1293;95292;-59
2022/10/17 07:42:47;;;;;;;;;;;;;;;21.73;74.72;101618.16;85977;1293;80825;-59
2022/10/17 07:44:53;;;;;;;;;;;;;;;21.89;74.18;101621.38;86003;1297;82781;-54
2022/10/17 07:47:00;;;;;;;;;;;;;;;22.09;73.68;101624.77;86006;1299;99799;-52
2022/10/17 07:49:08;;;;;;;;;;;;;;;22.55;73.22;101625.04;85963;1299;87798;-56
2022/10/17 07:51:16;;;;;;;;;;;;;;;23.14;72.51;101625.27;86026;1294;94759;-56
2022/10/17 07:53:23;;;;;;;;;;;;;;;23.40;71.39;101630.34;85994;1292;79781;-55
2022/10/17 07:55:30;;;;;;;;;;;;;;;23.50;70.96;101631.76;86010;1294;82853;-58
2022/10/17 07:57:39;;;;;;;;;;;;;;;23.99;70.36;101633.73;85994;1297;100161;-57
2022/10/17 07:59:46;;;;;;;;;;;;;;;24.33;69.37;101634.52;86010;1297;87810;-55
2022/10/17 08:01:55;;;;;;;;;;;;;;;24.29;68.33;101634.80;86005;1299;94005;-55
2022/10/17 08:04:02;;;;;;;;;;;;;;;24.05;67.56;101635.02;85973;1299;78588;-58
2022/10/17 08:06:09;;;;;;;;;;;;;;;23.68;67.44;101635.55;86010;1299;81077;-59
2022/10/17 08:08:16;;;;;;;;;;;;;;;23.38;67.31;101642.31;86036;1296;98433;-60
2022/10/17 08:10:28;;;;;;;;;;;;;;;22.99;67.26;101636.67;85995;1285;87669;-60
2022/10/17 08:12:36;;;;;;;;;;;;;;;22.47;67.31;101641.64;86001;1294;95277;-60
2022/10/17 08:14:43;;;;;;;;;;;;;;;22.07;66.97;101643.05;85995;1294;78493;-59
2022/10/17 08:16:54;;;;;;;;;;;;;;;21.76;67.07;101645.11;85990;1298;83302;-58
2022/10/17 08:19:01;;;;;;;;;;;;;;;21.66;67.26;101652.31;85985;1293;100046;-56
2022/10/17 08:21:10;;;;;;;;;;;;;;;21.54;67.51;101653.27;85997;1294;88230;-61
2022/10/17 08:23:17;;;;;;;;;;;;;;;21.40;67.66;101653.59;85986;1292;95285;-56
2022/10/17 08:25:24;;;;;;;;;;;;;;;21.33;67.72;101651.77;85980;1291;79815;-57
2022/10/17 08:27:33;;;;;;;;;;;;;;;21.33;67.55;101647.75;85992;1294;82702;-55
2022/10/17 08:29:41;;;;;;;;;;;;;;;21.25;67.40;101646.48;85968;1292;99925;-55
2022/10/17 08:31:47;;;;;;;;;;;;;;;21.19;67.50;101646.35;86000;1291;88747;-56
2022/10/17 08:33:54;;;;;;;;;;;;;;;21.11;68.12;101644.49;85991;1299;94729;-57
2022/10/17 08:36:03;;;;;;;;;;;;;;;21.32;68.22;101644.92;85990;1294;81137;-55
2022/10/17 08:38:09;;;;;;;;;;;;;;;21.32;68.20;101646.53;85978;1299;81102;-56
2022/10/17 08:40:20;;;;;;;;;;;;;;;21.45;67.87;101642.73;86023;1293;99617;-60
2022/10/17 08:42:44;;;;;;;;;;;;;;;21.48;67.50;101638.76;86018;1299;89840;-60
2022/10/17 08:44:57;;;;;;;;;;;;;;;21.47;67.92;101639.54;86000;1300;96037;-61
2022/10/17 08:47:10;;;;;;;;;;;;;;;21.40;67.78;101638.73;86022;1292;80461;-59
2022/10/17 08:49:26;;;;;;;;;;;;;;;21.39;67.67;101642.42;86068;1294;80165;-55
2022/10/17 08:51:36;;;;;;;;;;;;;;;21.39;67.68;101637.66;86004;1299;99368;-55
2022/10/17 08:53:47;;;;;;;;;;;;;;;21.41;67.42;101638.77;86017;1292;87869;-55
2022/10/17 08:55:55;;;;;;;;;;;;;;;21.39;67.51;101638.92;85968;1293;94367;-61
2022/10/17 08:58:02;;;;;;;;;;;;;;;21.46;67.75;101634.34;85993;1294;79231;-59
2022/10/17 09:00:17;;;;;;;;;;;;;;;21.68;68.34;101628.72;86009;1293;80958;-57
2022/10/17 09:02:37;;;;;;;;;;;;;;;22.04;68.06;101631.32;86029;1299;98961;-57
2022/10/17 09:04:57;;;;;;;;;;;;;;;22.41;67.71;101631.50;85930;1293;88385;-56
2022/10/17 09:07:19;;;;;;;;;;;;;;;22.99;67.01;101624.34;86000;1291;95381;-59
2022/10/17 09:09:35;;;;;;;;;;;;;;;23.62;65.95;101621.58;85994;1285;78050;-59
2022/10/17 09:12:04;;;;;;;;;;;;;;;24.25;66.00;101622.33;86018;1297;82559;-59
2022/10/17 09:14:22;;;;;;;;;;;;;;;25.02;64.84;101620.38;86051;1291;98686;-57
2022/10/17 09:16:43;;;;;;;;;;;;;;;25.51;63.67;101619.51;86059;1297;87324;-49
2022/10/17 09:18:59;;;;;;;;;;;;;;;25.86;63.39;101616.25;86037;1294;95388;-58
2022/10/17 09:21:17;;;;;;;;;;;;;;;26.10;62.15;101615.30;85977;1294;78946;-57
2022/10/17 09:23:26;;;;;;;;;;;;;;;26.34;61.84;101616.20;85993;1294;81361;-56
2022/10/17 09:25:44;;;;;;;;;;;;;;;26.58;60.61;101617.73;86024;1294;100106;-57
2022/10/17 09:27:55;;;;;;;;;;;;;;;26.56;59.58;101617.38;86000;1294;88172;-56
2022/10/17 09:30:19;;;;;;;;;;;;;;;26.47;59.17;101614.86;85978;1293;95501;-60
2022/10/17 09:32:29;;;;;;;;;;;;;;;26.62;59.29;101612.87;85982;1294;80377;-60
2022/10/17 09:34:36;;;;;;;;;;;;;;;26.78;59.04;101612.95;86027;1290;81157;-57
2022/10/17 09:36:44;;;;;;;;;;;;;;;27.05;58.56;101607.64;86028;1299;100064;-58
2022/10/17 09:38:54;;;;;;;;;;;;;;;27.35;58.50;101611.50;86014;1294;88948;-59
2022/10/17 09:41:02;;;;;;;;;;;;;;;27.49;57.47;101609.76;86015;1297;95922;-56
2022/10/17 09:43:12;;;;;;;;;;;;;;;27.34;56.70;101610.89;86039;1293;81049;-54
2022/10/17 09:45:25;;;;;;;;;;;;;;;27.21;56.65;101605.38;86061;1299;81333;-56
2022/10/17 09:47:35;;;;;;;;;;;;;;;27.12;55.81;101607.72;86075;1294;99062;-57
2022/10/17 09:49:43;;;;;;;;;;;;;;;26.90;55.91;101603.48;86084;1294;88562;-61
2022/10/17 09:51:51;;;;;;;;;;;;;;;26.48;56.58;101605.06;86022;1292;93713;-61
2022/10/17 09:54:01;;;;;;;;;;;;;;;26.26;56.24;101602.73;86064;1294;80285;-61
2022/10/17 09:56:14;;;;;;;;;;;;;;;26.01;55.84;101601.63;86002;1294;80839;-62
2022/10/17 09:58:22;;;;;;;;;;;;;;;25.58;55.90;101599.84;86019;1294;99593;-60
2022/10/17 10:00:31;;;;;;;;;;;;;;;25.31;55.97;101600.65;86035;1294;89020;-61
2022/10/17 10:02:39;;;;;;;;;;;;;;;24.99;56.27;101600.38;85996;1291;95813;-61
2022/10/17 10:05:02;;;;;;;;;;;;;;;24.77;56.32;101594.45;86019;1292;80022;-55
2022/10/17 10:07:13;;;;;;;;;;;;;;;24.57;56.12;101595.09;86028;1294;80982;-56
2022/10/17 10:09:25;;;;;;;;;;;;;;;24.26;56.69;101592.38;86048;1285;99352;-51
2022/10/17 10:11:47;;;;;;;;;;;;;;;24.09;56.73;101591.95;86027;1299;88835;-58
2022/10/17 10:13:54;;;;;;;;;;;;;;;23.90;56.77;101591.48;86035;1285;93843;-59
2022/10/17 10:16:17;;;;;;;;;;;;;;;23.80;57.08;101588.82;86030;1294;80282;-59
2022/10/17 10:18:36;;;;;;;;;;;;;;;23.64;57.19;101591.48;86009;1294;82305;-57
2022/10/17 10:21:02;;;;;;;;;;;;;;;23.47;57.27;101585.36;86073;1294;100092;-60
2022/10/17 10:23:17;;;;;;;;;;;;;;;23.23;57.24;101584.88;86065;1294;87863;-59
2022/10/17 10:25:25;;;;;;;;;;;;;;;23.09;57.72;101584.25;86077;1294;95927;-59
2022/10/17 10:27:33;;;;;;;;;;;;;;;22.90;58.27;101587.37;86021;1299;80712;-58
2022/10/17 10:29:43;;;;;;;;;;;;;;;22.90;58.47;101585.28;86049;1297;82470;-56
2022/10/17 10:31:51;;;;;;;;;;;;;;;22.92;58.44;101589.61;86015;1286;100150;-55
2022/10/17 10:33:59;;;;;;;;;;;;;;;22.87;58.41;101593.27;86041;1292;87567;-56
2022/10/17 10:36:07;;;;;;;;;;;;;;;22.85;58.61;101588.58;86009;1298;94053;-56
2022/10/17 10:38:18;;;;;;;;;;;;;;;22.82;58.94;101585.36;86002;1293;80418;-56
2022/10/17 10:40:31;;;;;;;;;;;;;;;22.79;58.83;101588.50;86017;1291;80521;-60
2022/10/17 10:42:40;;;;;;;;;;;;;;;22.75;58.90;101587.70;86007;1299;100443;-59
2022/10/17 10:44:48;;;;;;;;;;;;;;;22.70;59.13;101589.02;86046;1294;88643;-60
2022/10/17 10:47:14;;;;;;;;;;;;;;;22.70;59.36;101582.41;86025;1294;95390;-58
2022/10/17 10:49:32;;;;;;;;;;;;;;;22.72;59.25;101584.58;86037;1291;79035;-61
2022/10/17 10:51:46;;;;;;;;;;;;;;;22.70;59.10;101582.16;86058;1299;80138;-59
2022/10/17 10:53:58;;;;;;;;;;;;;;;22.64;58.98;101588.52;86089;1300;99480;-58
2022/10/17 10:56:10;;;;;;;;;;;;;;;22.59;59.05;101584.41;86028;1294;86902;-60
2022/10/17 10:58:26;;;;;;;;;;;;;;;22.54;59.28;101583.27;86032;1297;97101;-60
2022/10/17 11:00:35;;;;;;;;;;;;;;;22.57;59.22;101586.73;86018;1293;79546;-58
2022/10/17 11:02:51;;;;;;;;;;;;;;;22.50;59.15;101586.78;86022;1293;82618;-57
2022/10/17 11:05:01;;;;;;;;;;;;;;;22.50;59.32;101588.76;86004;1294;100339;-57
2022/10/17 11:07:13;;;;;;;;;;;;;;;22.57;59.50;101586.17;85997;1299;88463;-55